Time;durP1;ratioP1;P1;durP2;ratioP2;P2;SDS_P1;SDS_P2;PMS_P1;PMS_P2;Temp;Humidity;BMP_temperature;BMP_pressure;BME280_temperature;BME280_humidity;BME280_pressure;Samples;Min_cycle;Max_cycle;Signal;HPM_P1;HPM_P2
2023/04/28 00:00:21;;;;;;;9.32;5.47;;;6.30;90.20;;;;;;5073147;28;20031;-69
2023/04/28 00:02:47;;;;;;;8.82;5.38;;;6.30;90.20;;;;;;5072330;28;20140;-69
2023/04/28 00:05:13;;;;;;;7.95;5.18;;;6.30;90.10;;;;;;5074250;28;20484;-68
2023/04/28 00:07:38;;;;;;;9.70;5.85;;;6.40;90.10;;;;;;5060922;28;20117;-69
2023/04/28 00:10:05;;;;;;;11.73;5.97;;;6.30;90.10;;;;;;5079662;28;20066;-69
2023/04/28 00:12:30;;;;;;;11.10;6.05;;;6.30;90.10;;;;;;5081032;28;20056;-68
2023/04/28 00:14:56;;;;;;;9.52;5.80;;;6.30;90.00;;;;;;5057601;28;20036;-69
2023/04/28 00:17:22;;;;;;;9.45;5.63;;;6.40;89.90;;;;;;5072851;28;20056;-69
2023/04/28 00:19:48;;;;;;;9.18;6.03;;;6.40;89.70;;;;;;5078147;28;20090;-68
2023/04/28 00:22:14;;;;;;;11.27;6.53;;;6.40;90.00;;;;;;5077333;28;20074;-70
2023/04/28 00:24:40;;;;;;;11.35;6.13;;;6.30;89.50;;;;;;5081001;28;20032;-69
2023/04/28 00:27:06;;;;;;;10.27;6.25;;;6.40;89.50;;;;;;5078671;28;20044;-69
2023/04/28 00:29:32;;;;;;;14.52;6.70;;;6.40;89.70;;;;;;5077732;28;20454;-69
2023/04/28 00:31:57;;;;;;;13.65;6.60;;;6.30;89.60;;;;;;5073877;28;20028;-69
2023/04/28 00:34:23;;;;;;;10.77;6.57;;;6.30;89.60;;;;;;5079668;28;20039;-69
2023/04/28 00:36:48;;;;;;;10.48;6.07;;;6.30;89.50;;;;;;5072892;28;20032;-70
2023/04/28 00:39:15;;;;;;;10.63;6.28;;;6.20;90.00;;;;;;5080650;28;20477;-68
2023/04/28 00:41:41;;;;;;;12.30;6.57;;;6.30;89.60;;;;;;5070650;28;20448;-69
2023/04/28 00:44:06;;;;;;;12.93;6.47;;;6.30;89.80;;;;;;5055978;28;20044;-68
2023/04/28 00:46:32;;;;;;;13.73;6.78;;;6.30;89.80;;;;;;5076356;28;20089;-69
2023/04/28 00:48:58;;;;;;;11.52;6.30;;;6.30;89.90;;;;;;5076566;28;20044;-69
2023/04/28 00:51:24;;;;;;;12.40;6.47;;;6.30;90.00;;;;;;5072295;28;20395;-69
2023/04/28 00:53:50;;;;;;;13.20;6.80;;;6.30;90.10;;;;;;5070348;28;20658;-69
2023/04/28 00:56:16;;;;;;;14.07;7.13;;;6.20;90.00;;;;;;5082991;28;20559;-69
2023/04/28 00:58:42;;;;;;;14.02;7.30;;;6.30;90.20;;;;;;5073226;28;20127;-69
2023/04/28 01:01:09;;;;;;;10.98;6.32;;;6.30;90.10;;;;;;5061724;28;20062;-69
2023/04/28 01:03:37;;;;;;;12.90;6.57;;;6.30;90.20;;;;;;5072719;28;20036;-71
2023/04/28 01:06:04;;;;;;;15.15;7.25;;;6.30;90.30;;;;;;5083238;28;20043;-69
2023/04/28 01:08:31;;;;;;;14.50;7.22;;;6.30;90.40;;;;;;5061935;28;20541;-69
2023/04/28 01:10:57;;;;;;;14.82;7.82;;;6.30;90.30;;;;;;5085826;28;20447;-69
2023/04/28 01:13:22;;;;;;;13.52;8.02;;;6.30;90.30;;;;;;5087463;28;20050;-68
2023/04/28 01:15:49;;;;;;;16.02;8.10;;;6.30;90.40;;;;;;5066013;28;20418;-70
2023/04/28 01:18:15;;;;;;;14.82;8.13;;;6.30;90.40;;;;;;5066187;28;20037;-69
2023/04/28 01:20:41;;;;;;;17.92;9.27;;;6.30;90.50;;;;;;5077920;28;20040;-70
2023/04/28 01:23:11;;;;;;;15.18;8.35;;;6.30;90.50;;;;;;5070912;28;20078;-69
2023/04/28 01:25:37;;;;;;;15.80;9.10;;;6.30;91.20;;;;;;5074085;28;20047;-69
2023/04/28 01:28:03;;;;;;;16.73;8.25;;;6.40;90.50;;;;;;5069723;28;20375;-69
2023/04/28 01:30:28;;;;;;;16.20;8.40;;;6.40;90.50;;;;;;5058755;28;20043;-69
2023/04/28 01:32:54;;;;;;;19.02;8.32;;;6.30;90.50;;;;;;5060303;28;20405;-69
2023/04/28 01:35:19;;;;;;;14.75;8.98;;;6.40;90.50;;;;;;5085664;28;20040;-69
2023/04/28 01:37:45;;;;;;;18.77;8.48;;;6.30;90.50;;;;;;5077021;28;20123;-69
2023/04/28 01:40:11;;;;;;;16.25;9.48;;;6.30;90.70;;;;;;5061976;28;20078;-70
2023/04/28 01:42:37;;;;;;;16.30;8.20;;;6.40;90.80;;;;;;5077508;28;20044;-71
2023/04/28 01:45:04;;;;;;;18.58;8.85;;;6.30;90.70;;;;;;5079590;28;20074;-69
2023/04/28 01:47:29;;;;;;;16.02;8.93;;;6.30;90.70;;;;;;5077423;28;20171;-70
2023/04/28 01:49:55;;;;;;;14.80;8.30;;;6.30;90.70;;;;;;5077368;28;20123;-70
2023/04/28 01:52:23;;;;;;;17.40;8.65;;;6.30;90.80;;;;;;5075646;28;20044;-68
2023/04/28 01:54:49;;;;;;;18.95;8.57;;;6.30;90.60;;;;;;5075314;28;20036;-70
2023/04/28 01:57:14;;;;;;;18.27;9.05;;;6.30;90.70;;;;;;5074345;28;20453;-72
2023/04/28 01:59:40;;;;;;;19.92;9.73;;;6.30;90.80;;;;;;5079154;28;20031;-68
2023/04/28 02:02:05;;;;;;;16.10;8.82;;;6.30;90.70;;;;;;5069426;28;20066;-70
2023/04/28 02:04:31;;;;;;;16.65;8.02;;;6.20;90.70;;;;;;5069161;28;20161;-70
2023/04/28 02:06:57;;;;;;;19.70;9.80;;;6.30;90.70;;;;;;5076175;28;20071;-70
2023/04/28 02:09:23;;;;;;;19.15;8.27;;;6.20;90.70;;;;;;5080860;28;20044;-70
2023/04/28 02:11:49;;;;;;;19.27;9.15;;;6.20;90.70;;;;;;5072134;28;20109;-69
2023/04/28 02:14:14;;;;;;;18.55;9.43;;;6.20;90.70;;;;;;5082697;28;20040;-70
2023/04/28 02:16:40;;;;;;;16.90;8.93;;;6.10;90.70;;;;;;5061981;28;20040;-70
2023/04/28 02:19:05;;;;;;;21.80;10.25;;;6.20;90.90;;;;;;5079456;28;20046;-70
2023/04/28 02:21:31;;;;;;;18.60;9.70;;;6.10;90.90;;;;;;5081878;28;20028;-69
2023/04/28 02:23:57;;;;;;;22.23;9.93;;;6.10;90.90;;;;;;5083060;28;20040;-69
2023/04/28 02:26:23;;;;;;;20.45;10.05;;;6.10;91.00;;;;;;5077823;28;20132;-72
2023/04/28 02:28:48;;;;;;;21.92;9.70;;;6.10;91.00;;;;;;5084264;28;20059;-70
2023/04/28 02:31:15;;;;;;;20.80;10.27;;;6.10;90.90;;;;;;5083269;28;20508;-69
2023/04/28 02:33:43;;;;;;;20.58;9.65;;;6.10;90.90;;;;;;5086747;28;20040;-69
2023/04/28 02:36:09;;;;;;;18.02;8.95;;;6.10;91.00;;;;;;5055735;28;20060;-72
2023/04/28 02:38:35;;;;;;;17.77;9.80;;;6.10;91.20;;;;;;5088446;28;20040;-70
2023/04/28 02:41:06;;;;;;;21.73;9.70;;;6.10;91.20;;;;;;5057812;28;20032;-69
2023/04/28 02:43:32;;;;;;;19.08;9.73;;;6.10;91.10;;;;;;5059198;28;20372;-68
2023/04/28 02:45:58;;;;;;;18.30;9.90;;;6.00;91.10;;;;;;5082740;28;20036;-68
2023/04/28 02:48:24;;;;;;;20.92;10.05;;;6.10;91.10;;;;;;5073536;28;20035;-68
2023/04/28 02:50:51;;;;;;;18.58;9.63;;;6.00;91.10;;;;;;5088172;28;20650;-69
2023/04/28 02:53:17;;;;;;;20.38;9.50;;;6.00;91.20;;;;;;5066493;28;20063;-69
2023/04/28 02:55:43;;;;;;;18.83;9.40;;;6.00;91.10;;;;;;5062520;28;20040;-69
2023/04/28 02:58:09;;;;;;;23.90;10.40;;;6.00;91.30;;;;;;5078708;28;20040;-69
2023/04/28 03:00:35;;;;;;;22.45;11.02;;;5.90;91.30;;;;;;5057589;28;20051;-69
2023/04/28 03:03:00;;;;;;;18.67;10.45;;;5.90;91.40;;;;;;5069710;28;20053;-69
2023/04/28 03:05:26;;;;;;;24.77;10.00;;;5.80;91.40;;;;;;5072345;28;20442;-69
2023/04/28 03:07:52;;;;;;;24.33;11.27;;;5.80;91.50;;;;;;5079344;28;20047;-70
2023/04/28 03:10:17;;;;;;;21.02;10.48;;;5.80;91.70;;;;;;5075178;28;20032;-68
2023/04/28 03:12:43;;;;;;;20.05;10.23;;;5.70;91.60;;;;;;5082442;28;20048;-68
2023/04/28 03:15:09;;;;;;;24.15;11.65;;;5.70;91.60;;;;;;5071363;28;20366;-70
2023/04/28 03:17:40;;;;;;;24.67;11.50;;;5.70;91.60;;;;;;5072142;28;20035;-69
2023/04/28 03:20:07;;;;;;;25.05;11.52;;;5.70;91.60;;;;;;5077478;28;20046;-68
2023/04/28 03:22:33;;;;;;;23.08;10.80;;;5.60;91.60;;;;;;5079583;28;20059;-69
2023/04/28 03:24:58;;;;;;;23.17;11.45;;;5.60;91.70;;;;;;5078783;28;20032;-68
2023/04/28 03:27:24;;;;;;;20.38;10.32;;;5.60;91.50;;;;;;5070933;28;20032;-69
2023/04/28 03:29:49;;;;;;;24.15;12.30;;;5.60;91.60;;;;;;5081318;28;20032;-68
2023/04/28 03:32:15;;;;;;;23.30;10.85;;;5.60;91.80;;;;;;5070206;28;20492;-68
2023/04/28 03:34:41;;;;;;;21.83;10.48;;;5.60;91.80;;;;;;5055600;28;20444;-68
2023/04/28 03:37:06;;;;;;;21.48;11.50;;;5.70;91.70;;;;;;5072995;28;20416;-68
2023/04/28 03:39:32;;;;;;;22.23;11.05;;;5.70;91.70;;;;;;5063949;28;20081;-69
2023/04/28 03:41:57;;;;;;;23.45;10.70;;;5.70;91.80;;;;;;5072273;28;20045;-69
2023/04/28 03:44:23;;;;;;;24.52;11.13;;;5.70;91.80;;;;;;5078921;28;20044;-68
2023/04/28 03:46:49;;;;;;;23.70;12.07;;;5.70;91.80;;;;;;5074193;28;20051;-68
2023/04/28 03:49:15;;;;;;;27.52;12.27;;;5.70;91.80;;;;;;5071083;28;20101;-69
2023/04/28 03:51:40;;;;;;;25.27;10.95;;;5.70;91.80;;;;;;5077892;28;20070;-71
2023/04/28 03:54:06;;;;;;;24.67;11.65;;;5.70;92.00;;;;;;5074507;28;20041;-69
2023/04/28 03:56:33;;;;;;;28.08;11.50;;;5.70;91.80;;;;;;5086301;28;20055;-68
2023/04/28 03:58:58;;;;;;;23.98;11.15;;;5.70;91.60;;;;;;5080756;28;20043;-68
2023/04/28 04:01:24;;;;;;;26.77;11.50;;;5.70;91.60;;;;;;5076897;28;20036;-68
2023/04/28 04:03:50;;;;;;;27.63;12.77;;;5.70;91.70;;;;;;5076682;28;20081;-68
2023/04/28 04:06:16;;;;;;;22.80;11.73;;;5.70;91.70;;;;;;5063773;28;20093;-69
2023/04/28 04:08:41;;;;;;;23.90;11.32;;;5.70;91.70;;;;;;5063385;28;20043;-68
2023/04/28 04:11:07;;;;;;;23.88;11.65;;;5.70;91.70;;;;;;5081718;28;21456;-69
2023/04/28 04:13:33;;;;;;;23.83;12.02;;;5.80;91.70;;;;;;5080262;28;20071;-68
2023/04/28 04:15:58;;;;;;;24.25;11.10;;;5.80;91.80;;;;;;5078378;28;20550;-68
2023/04/28 04:18:24;;;;;;;24.15;11.45;;;5.80;91.70;;;;;;5076622;28;20488;-69
2023/04/28 04:20:52;;;;;;;26.10;11.43;;;5.70;91.60;;;;;;5077728;28;20052;-69
2023/04/28 04:23:18;;;;;;;24.10;11.90;;;5.80;91.70;;;;;;5080546;28;20040;-69
2023/04/28 04:25:43;;;;;;;25.00;11.05;;;5.80;91.70;;;;;;5079695;28;20494;-69
2023/04/28 04:28:09;;;;;;;22.88;10.95;;;5.80;91.60;;;;;;5081572;28;20413;-69
2023/04/28 04:30:35;;;;;;;24.83;12.25;;;5.80;91.50;;;;;;5077832;28;20419;-68
2023/04/28 04:33:00;;;;;;;21.95;10.90;;;5.90;91.50;;;;;;5077345;28;20579;-68
2023/04/28 04:35:26;;;;;;;23.42;11.43;;;5.90;91.70;;;;;;5082808;28;20098;-68
2023/04/28 04:37:51;;;;;;;25.55;11.45;;;5.90;91.70;;;;;;5079740;28;20040;-68
2023/04/28 04:40:17;;;;;;;22.55;11.43;;;5.90;91.70;;;;;;5082382;28;20034;-68
2023/04/28 04:42:43;;;;;;;32.10;11.57;;;5.90;91.50;;;;;;5079724;28;21826;-68
2023/04/28 04:45:08;;;;;;;24.20;10.85;;;5.90;91.40;;;;;;5066051;28;20095;-69
2023/04/28 04:47:34;;;;;;;23.92;11.07;;;5.90;91.30;;;;;;5080066;28;20097;-70
2023/04/28 04:50:00;;;;;;;23.40;11.27;;;5.90;91.30;;;;;;5074359;28;20494;-68
2023/04/28 04:52:25;;;;;;;23.98;12.02;;;5.90;91.60;;;;;;5068119;28;20035;-68
2023/04/28 04:54:51;;;;;;;26.48;11.43;;;5.90;91.20;;;;;;5079833;28;20098;-69
2023/04/28 04:57:17;;;;;;;23.88;12.35;;;6.00;91.10;;;;;;5079347;28;20395;-69
2023/04/28 04:59:42;;;;;;;25.83;11.00;;;6.00;91.20;;;;;;5075210;28;20035;-68
2023/04/28 05:02:08;;;;;;;20.17;11.00;;;6.00;91.10;;;;;;5086867;28;20047;-70
2023/04/28 05:04:33;;;;;;;23.33;11.88;;;6.10;91.10;;;;;;5073436;28;20072;-68
2023/04/28 05:06:59;;;;;;;25.67;12.00;;;6.10;91.20;;;;;;5085346;28;20040;-69
2023/04/28 05:09:24;;;;;;;26.48;12.35;;;6.10;91.10;;;;;;5060296;28;20059;-68
2023/04/28 05:11:50;;;;;;;25.70;10.88;;;6.10;91.10;;;;;;5053235;28;20098;-68
2023/04/28 05:14:16;;;;;;;26.25;12.23;;;6.10;91.00;;;;;;5081386;28;20471;-69
2023/04/28 05:16:41;;;;;;;24.08;10.82;;;6.10;91.00;;;;;;5075598;28;20040;-69
2023/04/28 05:19:07;;;;;;;24.52;11.43;;;6.10;91.00;;;;;;5074890;28;20040;-69
2023/04/28 05:21:33;;;;;;;24.10;11.35;;;6.20;91.00;;;;;;5062773;28;20032;-69
2023/04/28 05:23:58;;;;;;;23.95;11.02;;;6.20;90.80;;;;;;5080287;28;20033;-68
2023/04/28 05:26:24;;;;;;;22.33;11.43;;;6.30;90.90;;;;;;5055777;28;20119;-68
2023/04/28 05:28:50;;;;;;;23.38;11.32;;;6.30;91.00;;;;;;5079354;28;20044;-69
2023/04/28 05:31:16;;;;;;;23.20;11.60;;;6.30;91.10;;;;;;5073448;28;20040;-71
2023/04/28 05:33:41;;;;;;;22.73;11.48;;;6.30;91.20;;;;;;5050512;28;20484;-69
2023/04/28 05:36:07;;;;;;;21.67;11.27;;;6.30;91.30;;;;;;5068221;28;20123;-69
2023/04/28 05:38:33;;;;;;;28.30;11.77;;;6.30;91.30;;;;;;5071671;28;20036;-69
2023/04/28 05:41:00;;;;;;;28.25;11.73;;;6.40;91.40;;;;;;5070714;28;20131;-68
2023/04/28 05:43:26;;;;;;;23.30;11.73;;;6.50;91.40;;;;;;5074985;28;20044;-69
2023/04/28 05:45:52;;;;;;;24.27;11.90;;;6.50;91.40;;;;;;5074882;28;20549;-68
2023/04/28 05:48:17;;;;;;;23.60;11.82;;;6.60;91.70;;;;;;5083496;28;20115;-69
2023/04/28 05:50:43;;;;;;;22.35;11.27;;;6.70;91.50;;;;;;5066166;28;20040;-68
2023/04/28 05:53:08;;;;;;;24.05;12.00;;;6.80;91.20;;;;;;5089251;28;20055;-68
2023/04/28 05:55:35;;;;;;;24.60;12.00;;;6.80;91.20;;;;;;5084934;28;20036;-68
2023/04/28 05:58:01;;;;;;;26.08;12.05;;;6.80;91.00;;;;;;5077153;28;20028;-68
2023/04/28 06:00:27;;;;;;;21.08;11.07;;;6.90;90.80;;;;;;5082899;28;20051;-68
2023/04/28 06:02:52;;;;;;;23.33;10.73;;;6.90;90.80;;;;;;5057830;28;22331;-68
2023/04/28 06:05:18;;;;;;;21.95;11.55;;;6.90;90.60;;;;;;5085492;28;20131;-68
2023/04/28 06:07:44;;;;;;;22.63;10.77;;;6.90;90.40;;;;;;5078342;28;20040;-69
2023/04/28 06:10:10;;;;;;;23.35;11.18;;;6.90;90.40;;;;;;5077363;28;20041;-69
2023/04/28 06:12:36;;;;;;;23.35;12.32;;;6.90;90.30;;;;;;5082155;28;20044;-68
2023/04/28 06:15:02;;;;;;;23.35;11.15;;;6.90;90.10;;;;;;5084763;28;20166;-68
2023/04/28 06:17:30;;;;;;;24.40;12.30;;;7.00;90.10;;;;;;5081134;28;20664;-69
2023/04/28 06:19:57;;;;;;;27.15;10.80;;;7.00;90.00;;;;;;5086702;28;20032;-68
2023/04/28 06:22:26;;;;;;;22.10;11.07;;;7.10;90.00;;;;;;5092038;28;20177;-68
2023/04/28 06:24:51;;;;;;;20.95;12.10;;;7.20;90.00;;;;;;5091440;28;20080;-68
2023/04/28 06:27:17;;;;;;;22.10;10.90;;;7.20;89.80;;;;;;5077956;28;20041;-71
2023/04/28 06:29:43;;;;;;;23.23;11.07;;;7.30;89.70;;;;;;5092618;28;20043;-69
2023/04/28 06:32:09;;;;;;;23.58;10.38;;;7.30;89.50;;;;;;5088314;28;20127;-68
2023/04/28 06:34:36;;;;;;;24.67;11.82;;;7.30;89.80;;;;;;5088360;28;20118;-69
2023/04/28 06:37:01;;;;;;;20.35;10.88;;;7.30;90.00;;;;;;5066788;28;20048;-68
2023/04/28 06:39:27;;;;;;;23.02;12.15;;;7.30;90.10;;;;;;5085265;28;20047;-68
2023/04/28 06:41:52;;;;;;;20.02;10.93;;;7.20;90.10;;;;;;5075318;28;20119;-68
2023/04/28 06:44:18;;;;;;;24.98;11.63;;;7.20;90.10;;;;;;5090965;28;20052;-69
2023/04/28 06:46:44;;;;;;;20.05;10.88;;;7.20;90.40;;;;;;5089698;28;20044;-69
2023/04/28 06:49:10;;;;;;;20.85;10.63;;;7.10;90.00;;;;;;5075899;28;20048;-68
2023/04/28 06:51:36;;;;;;;23.77;11.55;;;7.10;89.90;;;;;;5049060;28;20043;-68
2023/04/28 06:54:01;;;;;;;20.98;11.35;;;7.10;89.60;;;;;;5088844;28;20040;-68
2023/04/28 06:56:27;;;;;;;22.15;11.30;;;7.20;89.90;;;;;;5067154;28;20036;-69
2023/04/28 06:58:57;;;;;;;21.73;10.77;;;7.30;90.00;;;;;;5070255;28;20044;-68
2023/04/28 07:01:23;;;;;;;19.60;11.00;;;7.30;89.80;;;;;;5074066;28;20046;-68
2023/04/28 07:03:49;;;;;;;18.52;9.68;;;7.40;89.70;;;;;;5073707;28;20048;-70
2023/04/28 07:06:15;;;;;;;19.40;10.65;;;7.40;89.50;;;;;;5083375;28;20048;-68
2023/04/28 07:08:41;;;;;;;16.55;9.30;;;7.40;88.80;;;;;;5052330;28;20475;-67
2023/04/28 07:11:06;;;;;;;17.40;10.32;;;7.50;88.50;;;;;;5084305;28;20039;-69
2023/04/28 07:13:32;;;;;;;20.63;10.05;;;7.50;88.10;;;;;;5081602;28;20063;-70
2023/04/28 07:15:58;;;;;;;19.77;9.73;;;7.60;88.10;;;;;;5078475;28;20036;-68
2023/04/28 07:18:23;;;;;;;19.63;9.75;;;7.50;88.80;;;;;;5080212;28;20122;-69
2023/04/28 07:20:49;;;;;;;17.25;9.50;;;7.60;89.70;;;;;;5075438;28;20033;-68
2023/04/28 07:23:15;;;;;;;17.92;10.07;;;7.70;90.00;;;;;;5084574;28;20082;-68
2023/04/28 07:25:40;;;;;;;15.82;8.93;;;7.70;90.00;;;;;;5079156;28;20488;-70
2023/04/28 07:28:06;;;;;;;19.05;9.23;;;7.70;90.00;;;;;;5082775;28;20036;-69
2023/04/28 07:30:32;;;;;;;18.48;9.55;;;7.70;89.50;;;;;;5077445;28;20043;-70
2023/04/28 07:32:58;;;;;;;16.40;9.18;;;7.70;89.10;;;;;;5075870;28;20040;-69
2023/04/28 07:35:24;;;;;;;19.67;10.07;;;7.60;88.60;;;;;;5084850;28;20106;-69
2023/04/28 07:37:50;;;;;;;18.38;10.00;;;7.70;89.30;;;;;;5083106;28;20034;-70
2023/04/28 07:40:16;;;;;;;16.55;9.93;;;7.80;89.10;;;;;;5085495;28;20040;-71
2023/04/28 07:42:42;;;;;;;22.75;9.70;;;7.90;89.20;;;;;;5081380;28;20032;-70
2023/04/28 07:45:08;;;;;;;15.75;8.98;;;7.80;87.90;;;;;;5084185;28;20108;-68
2023/04/28 07:47:34;;;;;;;17.75;9.45;;;8.00;87.60;;;;;;5081565;28;20036;-69
2023/04/28 07:50:03;;;;;;;19.17;10.55;;;8.00;86.70;;;;;;5075707;28;20036;-68
2023/04/28 07:52:30;;;;;;;15.93;9.10;;;8.10;86.70;;;;;;5081803;28;20050;-69
2023/04/28 07:54:56;;;;;;;19.50;9.70;;;8.30;86.00;;;;;;5090982;28;20047;-69
2023/04/28 07:57:22;;;;;;;16.40;9.27;;;8.40;86.30;;;;;;5065686;28;20039;-71
2023/04/28 07:59:47;;;;;;;15.13;8.75;;;8.50;86.20;;;;;;5090129;28;20035;-71
2023/04/28 08:02:13;;;;;;;16.35;9.27;;;8.50;85.40;;;;;;5075779;28;20096;-70
2023/04/28 08:04:40;;;;;;;17.92;9.65;;;8.60;85.70;;;;;;5086347;28;20535;-69
2023/04/28 08:07:05;;;;;;;15.90;9.38;;;8.70;85.10;;;;;;5085928;28;20442;-69
2023/04/28 08:09:31;;;;;;;15.75;8.75;;;8.80;85.00;;;;;;5082128;28;20032;-72
2023/04/28 08:11:57;;;;;;;19.58;9.68;;;8.70;84.30;;;;;;5078176;28;20076;-70
2023/04/28 08:14:23;;;;;;;17.98;9.85;;;8.90;84.50;;;;;;5086121;28;20036;-70
2023/04/28 08:16:49;;;;;;;18.05;9.07;;;9.00;84.70;;;;;;5076848;28;20686;-69
2023/04/28 08:19:15;;;;;;;18.23;9.65;;;9.10;84.20;;;;;;5071323;28;20036;-71
2023/04/28 08:21:40;;;;;;;16.98;9.70;;;9.10;83.80;;;;;;5064148;28;20032;-69
2023/04/28 08:24:07;;;;;;;15.40;9.07;;;9.10;83.90;;;;;;5061556;28;20134;-68
2023/04/28 08:26:33;;;;;;;17.35;8.93;;;9.30;83.90;;;;;;5082781;28;20044;-69
2023/04/28 08:28:58;;;;;;;17.25;9.75;;;9.40;83.80;;;;;;5082518;28;20047;-68
2023/04/28 08:31:24;;;;;;;16.15;9.23;;;9.60;83.60;;;;;;5085139;28;20044;-69
2023/04/28 08:33:50;;;;;;;17.55;9.10;;;9.70;82.50;;;;;;5080396;28;20039;-73
2023/04/28 08:36:17;;;;;;;15.38;9.00;;;9.70;81.40;;;;;;5063164;28;20042;-68
2023/04/28 08:38:44;;;;;;;16.77;9.60;;;9.90;81.70;;;;;;5067166;28;20432;-70
2023/04/28 08:41:12;;;;;;;15.32;8.73;;;10.20;81.60;;;;;;5063845;28;20040;-71
2023/04/28 08:43:41;;;;;;;15.73;8.60;;;10.50;80.40;;;;;;5068631;28;20065;-69
2023/04/28 08:46:07;;;;;;;15.95;8.75;;;10.80;81.50;;;;;;5080806;28;20058;-69
2023/04/28 08:48:41;;;;;;;15.00;8.57;;;10.70;81.00;;;;;;5084388;28;20422;-70
2023/04/28 08:51:07;;;;;;;16.20;9.00;;;10.70;79.80;;;;;;5072254;28;20036;-70
2023/04/28 08:53:37;;;;;;;13.85;8.85;;;10.70;81.70;;;;;;5064982;28;20480;-69
2023/04/28 08:56:05;;;;;;;17.20;8.93;;;10.60;82.30;;;;;;5084383;28;20040;-69
2023/04/28 08:58:34;;;;;;;15.15;8.48;;;10.40;83.70;;;;;;5084607;28;20028;-69
2023/04/28 09:01:03;;;;;;;16.88;8.90;;;10.10;84.80;;;;;;5078257;28;20032;-68
2023/04/28 09:03:29;;;;;;;13.90;8.85;;;9.50;87.70;;;;;;5080641;28;20059;-67
2023/04/28 09:05:55;;;;;;;20.25;9.80;;;9.30;89.80;;;;;;5086680;28;20039;-68
2023/04/28 09:08:20;;;;;;;16.95;9.45;;;9.20;90.60;;;;;;5088375;28;20032;-68
2023/04/28 09:10:46;;;;;;;17.33;10.18;;;9.20;92.20;;;;;;5086208;28;20534;-67
2023/04/28 09:13:24;;;;;;;16.40;8.68;;;9.30;93.10;;;;;;5080557;28;20060;-70
2023/04/28 09:15:50;;;;;;;16.38;9.80;;;9.30;92.20;;;;;;5081915;28;20480;-68
2023/04/28 09:18:16;;;;;;;17.08;10.27;;;9.30;93.10;;;;;;5080209;28;20043;-67
2023/04/28 09:20:43;;;;;;;22.10;10.80;;;9.30;93.90;;;;;;5069356;28;20040;-68
2023/04/28 09:23:14;;;;;;;15.88;9.43;;;9.60;95.00;;;;;;5085220;28;20056;-67
2023/04/28 09:25:40;;;;;;;16.13;9.65;;;9.60;95.50;;;;;;5069818;28;20040;-67
2023/04/28 09:28:22;;;;;;;17.52;9.52;;;9.70;94.80;;;;;;5066028;28;20091;-67
2023/04/28 09:30:47;;;;;;;14.13;9.77;;;9.80;96.10;;;;;;5076712;28;20053;-68
2023/04/28 09:33:14;;;;;;;13.55;9.20;;;9.90;95.10;;;;;;5082516;28;20040;-67
2023/04/28 09:35:41;;;;;;;15.70;9.57;;;9.90;95.10;;;;;;5087476;28;20036;-68
2023/04/28 09:38:07;;;;;;;12.60;8.38;;;10.00;95.40;;;;;;5090102;28;20081;-67
2023/04/28 09:40:47;;;;;;;13.63;8.85;;;10.20;95.30;;;;;;5088918;28;20111;-68
2023/04/28 09:43:24;;;;;;;14.13;8.98;;;10.40;95.00;;;;;;5058777;28;20480;-67
2023/04/28 09:45:49;;;;;;;17.77;9.73;;;10.40;94.50;;;;;;5085424;28;20483;-67
2023/04/28 09:48:16;;;;;;;16.85;9.98;;;10.50;94.60;;;;;;5082269;28;20100;-68
2023/04/28 09:50:41;;;;;;;15.52;8.50;;;10.70;94.20;;;;;;5084781;28;20391;-69
2023/04/28 09:53:11;;;;;;;13.48;8.65;;;10.80;93.40;;;;;;5086377;28;20040;-68
2023/04/28 09:55:42;;;;;;;16.83;9.52;;;10.80;92.30;;;;;;5069000;28;20036;-68
2023/04/28 09:58:10;;;;;;;13.40;8.90;;;10.90;91.50;;;;;;5077658;28;20036;-68
2023/04/28 10:00:37;;;;;;;14.07;8.35;;;11.10;91.90;;;;;;5086859;28;20028;-68
2023/04/28 10:03:04;;;;;;;14.00;9.13;;;11.20;91.20;;;;;;5077890;28;20412;-71
2023/04/28 10:05:31;;;;;;;15.73;9.18;;;11.30;90.90;;;;;;5076843;28;20044;-67
2023/04/28 10:07:59;;;;;;;14.68;9.63;;;11.50;90.60;;;;;;5061784;28;20447;-68
2023/04/28 10:10:28;;;;;;;16.58;9.13;;;12.10;90.20;;;;;;5083348;28;20040;-70
2023/04/28 10:12:54;;;;;;;14.25;8.88;;;12.50;88.00;;;;;;5079337;28;20055;-67
2023/04/28 10:15:21;;;;;;;12.60;8.80;;;12.90;87.80;;;;;;5069220;28;20387;-70
2023/04/28 10:17:49;;;;;;;12.63;8.90;;;13.00;85.40;;;;;;5082972;28;20032;-69
2023/04/28 10:20:15;;;;;;;13.25;8.68;;;13.00;85.10;;;;;;5072784;28;20542;-67
2023/04/28 10:23:16;;;;;;;15.27;9.40;;;13.10;83.90;;;;;;5080308;28;20119;-70
2023/04/28 10:25:42;;;;;;;13.45;8.30;;;13.30;79.00;;;;;;5056598;28;20060;-68
2023/04/28 10:28:08;;;;;;;12.93;8.80;;;13.40;85.50;;;;;;5073167;28;20036;-69
2023/04/28 10:30:36;;;;;;;12.77;8.90;;;13.70;85.60;;;;;;5083142;28;20047;-68
2023/04/28 10:33:05;;;;;;;14.20;8.98;;;13.80;84.60;;;;;;5062003;28;20040;-68
2023/04/28 10:35:31;;;;;;;14.65;8.68;;;13.70;83.40;;;;;;5065639;28;20067;-70
2023/04/28 10:38:04;;;;;;;16.00;8.52;;;13.70;83.90;;;;;;5062843;28;20036;-69
2023/04/28 10:40:37;;;;;;;12.35;8.40;;;13.50;79.20;;;;;;5093792;28;20044;-67
2023/04/28 10:43:03;;;;;;;12.73;9.07;;;13.50;82.80;;;;;;5087913;28;20044;-68
2023/04/28 10:45:47;;;;;;;15.02;8.57;;;13.60;83.50;;;;;;5089062;28;20071;-70
2023/04/28 10:48:16;;;;;;;12.43;8.75;;;13.70;79.60;;;;;;5081807;28;20079;-67
2023/04/28 10:51:08;;;;;;;12.45;8.55;;;14.10;83.10;;;;;;5090367;28;20044;-69
2023/04/28 10:53:48;;;;;;;13.45;8.30;;;14.30;77.10;;;;;;5067460;28;20040;-66
2023/04/28 10:56:18;;;;;;;11.60;8.27;;;14.30;76.40;;;;;;5072695;28;20617;-67
2023/04/28 10:58:49;;;;;;;12.80;8.75;;;14.40;80.50;;;;;;5088973;28;20107;-70
2023/04/28 11:01:18;;;;;;;13.00;8.63;;;14.20;80.40;;;;;;5088715;28;20468;-69
2023/04/28 11:03:49;;;;;;;11.68;8.05;;;14.00;79.80;;;;;;5065747;28;20054;-70
2023/04/28 11:06:27;;;;;;;14.50;9.15;;;13.90;79.60;;;;;;5082131;28;20051;-71
2023/04/28 11:08:55;;;;;;;14.40;9.10;;;13.90;79.10;;;;;;5080127;28;20119;-69
2023/04/28 11:11:23;;;;;;;11.48;8.48;;;14.00;80.80;;;;;;5084682;28;20055;-70
2023/04/28 11:13:49;;;;;;;13.68;8.93;;;14.00;80.20;;;;;;5078321;28;20055;-69
2023/04/28 11:16:20;;;;;;;15.23;8.85;;;14.00;80.20;;;;;;5072152;28;20036;-71
2023/04/28 11:18:52;;;;;;;14.85;9.50;;;14.10;78.40;;;;;;5084042;28;20705;-74
2023/04/28 11:21:22;;;;;;;13.80;9.13;;;14.10;77.50;;;;;;5072399;28;20040;-70
2023/04/28 11:23:48;;;;;;;11.45;8.07;;;14.20;79.20;;;;;;5088905;28;20040;-68
2023/04/28 11:26:14;;;;;;;13.57;8.10;;;14.40;79.00;;;;;;5071557;28;20097;-69
2023/04/28 11:28:57;;;;;;;13.38;8.38;;;14.50;78.50;;;;;;5084141;28;20047;-69
2023/04/28 11:31:24;;;;;;;10.23;8.30;;;14.60;78.00;;;;;;5083622;28;20040;-72
2023/04/28 11:34:00;;;;;;;14.90;8.77;;;14.70;77.50;;;;;;5089193;28;20032;-69
2023/04/28 11:36:34;;;;;;;11.18;8.48;;;14.60;77.30;;;;;;5085963;28;20480;-70
2023/04/28 11:39:06;;;;;;;14.73;8.45;;;14.80;78.50;;;;;;5068704;28;20077;-69
2023/04/28 11:41:33;;;;;;;10.73;8.85;;;14.80;78.60;;;;;;5087236;28;20031;-70
2023/04/28 11:43:59;;;;;;;15.55;9.20;;;14.70;78.50;;;;;;5079892;28;20095;-68
2023/04/28 11:46:25;;;;;;;10.80;8.25;;;14.50;78.80;;;;;;5090501;28;20118;-69
2023/04/28 11:49:00;;;;;;;12.88;8.63;;;14.40;79.10;;;;;;5089953;28;20527;-71
2023/04/28 11:51:33;;;;;;;14.18;8.57;;;14.30;78.50;;;;;;5059281;28;20032;-75
2023/04/28 11:54:01;;;;;;;12.90;8.48;;;14.30;78.40;;;;;;5069076;28;20084;-68
2023/04/28 11:56:27;;;;;;;13.13;8.98;;;14.20;79.40;;;;;;5053330;28;20041;-69
2023/04/28 11:59:00;;;;;;;12.88;8.48;;;14.30;78.90;;;;;;5082493;28;20523;-70
2023/04/28 12:01:26;;;;;;;14.52;9.02;;;14.30;78.10;;;;;;5053674;28;20044;-72
2023/04/28 12:03:51;;;;;;;11.75;8.82;;;14.50;79.20;;;;;;5068118;28;20058;-71
2023/04/28 12:06:18;;;;;;;12.45;9.25;;;14.40;78.70;;;;;;5064652;28;20089;-71
2023/04/28 12:08:43;;;;;;;12.93;8.25;;;14.40;78.70;;;;;;5066554;28;20032;-69
2023/04/28 12:11:11;;;;;;;12.75;8.70;;;14.50;79.10;;;;;;5070106;28;20055;-71
2023/04/28 12:13:38;;;;;;;11.75;8.75;;;14.40;78.80;;;;;;5102737;28;20132;-70
2023/04/28 12:16:05;;;;;;;12.38;8.43;;;14.40;78.50;;;;;;5081098;28;20483;-71
2023/04/28 12:18:31;;;;;;;14.73;8.63;;;14.30;78.80;;;;;;5071906;28;20035;-70
2023/04/28 12:20:57;;;;;;;13.35;9.50;;;14.20;79.00;;;;;;5082022;28;20042;-70
2023/04/28 12:23:34;;;;;;;11.35;8.90;;;14.20;79.40;;;;;;5077351;28;20484;-70
2023/04/28 12:26:01;;;;;;;13.48;8.90;;;14.30;80.10;;;;;;5077953;28;20640;-71
2023/04/28 12:28:40;;;;;;;12.50;9.32;;;14.40;80.40;;;;;;5087096;28;20157;-70
2023/04/28 12:31:07;;;;;;;11.60;9.15;;;14.30;80.30;;;;;;5084338;28;20492;-71
2023/04/28 12:33:36;;;;;;;13.27;9.43;;;14.20;80.20;;;;;;5075336;28;20035;-69
2023/04/28 12:36:03;;;;;;;16.63;8.90;;;14.20;80.30;;;;;;5085304;28;20036;-70
2023/04/28 12:38:29;;;;;;;14.50;9.43;;;14.10;80.40;;;;;;5078707;28;20515;-71